createdAt,value
2023-05-20T00:00:16.344Z,0.00
2023-05-20T00:01:16.416Z,0.00
2023-05-20T00:02:16.316Z,0.00
2023-05-20T00:03:16.364Z,0.00
2023-05-20T00:04:16.338Z,0.00
2023-05-20T00:05:16.283Z,0.00
2023-05-20T00:06:16.311Z,0.00
2023-05-20T00:07:16.260Z,0.00
2023-05-20T00:08:16.270Z,0.00
2023-05-20T00:09:16.278Z,0.00
2023-05-20T00:10:16.236Z,0.00
2023-05-20T00:11:16.266Z,0.00
2023-05-20T00:12:16.215Z,0.00
2023-05-20T00:13:16.211Z,0.00
2023-05-20T00:14:16.184Z,0.00
2023-05-20T00:15:16.259Z,0.00
2023-05-20T00:16:16.335Z,0.00
2023-05-20T00:17:16.173Z,0.00
2023-05-20T00:18:16.195Z,0.00
2023-05-20T00:19:16.549Z,0.00
2023-05-20T00:20:16.649Z,0.00
2023-05-20T00:21:16.114Z,0.00
2023-05-20T00:22:16.110Z,0.00
2023-05-20T00:23:16.107Z,0.00
2023-05-20T00:24:16.084Z,0.00
2023-05-20T00:25:16.115Z,0.00
2023-05-20T00:26:16.102Z,0.00
2023-05-20T00:27:16.065Z,0.00
2023-05-20T00:28:16.078Z,0.00
2023-05-20T00:29:16.028Z,0.00
2023-05-20T00:30:16.031Z,0.00
2023-05-20T00:31:16.601Z,0.00
2023-05-20T00:32:16.081Z,0.00
2023-05-20T00:33:16.014Z,0.00
2023-05-20T00:34:15.968Z,0.00
2023-05-20T00:35:15.968Z,0.00
2023-05-20T00:36:16.008Z,0.00
2023-05-20T00:37:15.961Z,0.00
2023-05-20T00:38:15.931Z,0.00
2023-05-20T00:39:15.934Z,0.00
2023-05-20T00:40:15.960Z,0.00
2023-05-20T00:41:15.990Z,0.00
2023-05-20T00:42:15.914Z,0.00
2023-05-20T00:43:15.913Z,0.00
2023-05-20T00:44:15.863Z,0.00
2023-05-20T00:45:15.852Z,0.00
2023-05-20T00:46:15.947Z,0.00
2023-05-20T00:47:15.865Z,0.00
2023-05-20T00:48:15.822Z,0.00
2023-05-20T00:49:15.819Z,0.00
2023-05-20T00:50:15.807Z,0.00
2023-05-20T00:51:15.829Z,0.00
2023-05-20T00:52:15.874Z,0.00
2023-05-20T00:53:15.848Z,0.00
2023-05-20T00:54:15.763Z,0.00
2023-05-20T00:55:15.754Z,0.00
2023-05-20T00:56:15.743Z,0.00
2023-05-20T00:57:15.727Z,0.00
2023-05-20T00:58:16.150Z,0.00
2023-05-20T00:59:15.750Z,0.00
2023-05-20T01:00:15.690Z,0.00
2023-05-20T01:01:15.774Z,0.00
2023-05-20T01:02:15.716Z,0.00
2023-05-20T01:03:15.838Z,0.00
2023-05-20T01:04:15.659Z,0.00
2023-05-20T01:05:15.628Z,0.00
2023-05-20T01:06:15.636Z,0.00
2023-05-20T01:07:15.620Z,0.00
2023-05-20T01:08:15.623Z,0.00
2023-05-20T01:09:15.592Z,0.00
2023-05-20T01:10:15.595Z,0.00
2023-05-20T01:11:15.572Z,0.00
2023-05-20T01:12:15.566Z,0.00
2023-05-20T01:13:15.572Z,0.00
2023-05-20T01:14:15.547Z,0.00
2023-05-20T01:15:15.600Z,0.00
2023-05-20T01:16:15.598Z,0.00
2023-05-20T01:17:15.533Z,0.00
2023-05-20T01:18:15.494Z,0.00
2023-05-20T01:19:15.530Z,0.00
2023-05-20T01:20:15.474Z,0.00
2023-05-20T01:21:15.534Z,0.00
2023-05-20T01:22:15.463Z,0.00
2023-05-20T01:23:15.505Z,0.00
2023-05-20T01:24:15.515Z,0.00
2023-05-20T01:25:15.438Z,0.00
2023-05-20T01:26:15.408Z,0.00
2023-05-20T01:27:15.407Z,0.00
2023-05-20T01:28:15.391Z,0.00
2023-05-20T01:29:16.126Z,0.00
2023-05-20T01:30:15.398Z,0.00
2023-05-20T01:31:15.415Z,0.00
2023-05-20T01:32:15.339Z,0.00
2023-05-20T01:33:15.370Z,0.00
2023-05-20T01:34:15.326Z,0.00
2023-05-20T01:35:15.321Z,0.00
2023-05-20T01:36:15.297Z,0.00
2023-05-20T01:37:15.310Z,0.00
2023-05-20T01:38:15.284Z,0.00
2023-05-20T01:39:15.309Z,0.00
2023-05-20T01:40:15.272Z,0.00
2023-05-20T01:41:15.252Z,0.00
2023-05-20T01:42:15.236Z,0.00
2023-05-20T01:43:17.364Z,0.00
2023-05-20T01:44:15.214Z,0.00
2023-05-20T01:45:15.219Z,0.00
2023-05-20T01:46:15.254Z,0.00
2023-05-20T01:47:15.204Z,0.00
2023-05-20T01:48:15.164Z,0.00
2023-05-20T01:49:15.198Z,0.00
2023-05-20T01:50:15.144Z,0.00
2023-05-20T01:51:15.144Z,0.00
2023-05-20T01:52:15.182Z,0.00
2023-05-20T01:53:15.128Z,0.00
2023-05-20T01:54:15.176Z,0.00
2023-05-20T01:55:15.111Z,0.00
2023-05-20T01:56:15.076Z,0.00
2023-05-20T01:57:15.106Z,0.00
2023-05-20T01:58:15.181Z,0.00
2023-05-20T01:59:15.072Z,0.00
2023-05-20T02:00:15.038Z,0.00
2023-05-20T02:01:15.078Z,0.00
2023-05-20T02:02:15.093Z,0.00
2023-05-20T02:03:15.113Z,0.00
2023-05-20T02:04:15.044Z,0.00
2023-05-20T02:05:15.634Z,0.00
2023-05-20T02:06:15.017Z,0.00
2023-05-20T02:07:14.979Z,0.00
2023-05-20T02:08:14.975Z,0.00
2023-05-20T02:09:14.994Z,0.00
2023-05-20T02:10:14.940Z,0.00
2023-05-20T02:11:15.006Z,0.00
2023-05-20T02:12:14.915Z,0.00
2023-05-20T02:13:14.922Z,0.00
2023-05-20T02:14:14.918Z,0.00
2023-05-20T02:15:15.649Z,0.00
2023-05-20T02:16:14.903Z,0.00
2023-05-20T02:17:14.891Z,0.00
2023-05-20T02:18:14.879Z,0.00
2023-05-20T02:19:14.926Z,0.00
2023-05-20T02:20:14.841Z,0.00
2023-05-20T02:21:14.818Z,0.00
2023-05-20T02:22:14.877Z,0.00
2023-05-20T02:23:14.828Z,0.00
2023-05-20T02:24:14.844Z,0.00
2023-05-20T02:25:14.849Z,0.00
2023-05-20T02:26:14.840Z,0.00
2023-05-20T02:27:14.800Z,0.00
2023-05-20T02:28:14.746Z,0.00
2023-05-20T02:29:14.735Z,0.00
2023-05-20T02:30:14.742Z,0.00
2023-05-20T02:31:14.727Z,0.00
2023-05-20T02:32:14.741Z,0.00
2023-05-20T02:33:14.807Z,0.00
2023-05-20T02:34:14.771Z,0.00
2023-05-20T02:35:14.694Z,0.00
2023-05-20T02:36:14.661Z,0.00
2023-05-20T02:37:14.716Z,0.00
2023-05-20T02:38:14.658Z,0.00
2023-05-20T02:39:14.676Z,0.00
2023-05-20T02:40:14.682Z,0.00
2023-05-20T02:41:14.609Z,0.00
2023-05-20T02:42:14.607Z,0.00
2023-05-20T02:43:14.589Z,0.00
2023-05-20T02:44:14.585Z,0.00
2023-05-20T02:45:14.588Z,0.00
2023-05-20T02:46:25.555Z,0.00
2023-05-20T02:47:14.544Z,0.00
2023-05-20T02:48:14.525Z,0.00
2023-05-20T02:49:14.553Z,0.00
2023-05-20T02:50:14.535Z,0.00
2023-05-20T02:51:14.529Z,0.00
2023-05-20T02:52:14.507Z,0.00
2023-05-20T02:53:14.490Z,0.00
2023-05-20T02:54:14.464Z,0.00
2023-05-20T02:55:14.479Z,0.00
2023-05-20T02:56:14.491Z,0.00
2023-05-20T02:57:14.460Z,0.00
2023-05-20T02:58:14.418Z,0.00
2023-05-20T02:59:14.432Z,0.00
2023-05-20T03:00:14.447Z,0.00
2023-05-20T03:01:14.422Z,0.00
2023-05-20T03:02:14.383Z,0.00
2023-05-20T03:03:14.398Z,0.00
2023-05-20T03:04:15.257Z,0.00
2023-05-20T03:05:14.351Z,0.00
2023-05-20T03:06:14.397Z,0.00
2023-05-20T03:07:14.347Z,0.00
2023-05-20T03:08:14.334Z,0.00
2023-05-20T03:09:14.392Z,0.00
2023-05-20T03:10:14.328Z,0.00
2023-05-20T03:11:14.301Z,0.00
2023-05-20T03:12:14.287Z,0.00
2023-05-20T03:13:14.264Z,0.00
2023-05-20T03:14:14.275Z,0.00
2023-05-20T03:15:14.251Z,0.00
2023-05-20T03:16:14.315Z,0.00
2023-05-20T03:17:14.220Z,0.00
2023-05-20T03:18:14.222Z,0.00
2023-05-20T03:19:14.220Z,0.00
2023-05-20T03:21:42.416Z,0.00
2023-05-20T03:22:42.381Z,0.00
2023-05-20T03:23:42.310Z,0.00
2023-05-20T03:24:42.310Z,0.00
2023-05-20T03:25:42.312Z,0.00
2023-05-20T03:26:42.343Z,0.00
2023-05-20T03:27:42.269Z,0.00
2023-05-20T03:28:42.253Z,0.00
2023-05-20T03:29:42.235Z,0.00
2023-05-20T03:30:42.237Z,0.00
2023-05-20T03:31:42.284Z,0.00
2023-05-20T03:32:42.239Z,0.00
2023-05-20T03:33:42.213Z,0.00
2023-05-20T03:34:42.204Z,0.00
2023-05-20T03:35:42.200Z,0.00
2023-05-20T03:36:42.170Z,0.00
2023-05-20T03:37:42.160Z,0.00
2023-05-20T03:38:42.216Z,0.00
2023-05-20T03:39:42.131Z,0.00
2023-05-20T03:40:42.196Z,0.00
2023-05-20T03:41:42.156Z,0.00
2023-05-20T03:42:42.119Z,0.00
2023-05-20T03:43:42.136Z,0.00
2023-05-20T03:44:42.130Z,0.00
2023-05-20T03:45:42.094Z,0.00
2023-05-20T03:46:42.189Z,0.00
2023-05-20T03:47:42.097Z,0.00
2023-05-20T03:48:42.069Z,0.00
2023-05-20T03:49:42.033Z,0.00
2023-05-20T03:50:42.126Z,0.00
2023-05-20T03:51:42.071Z,0.00
2023-05-20T03:52:42.024Z,0.00
2023-05-20T03:53:42.006Z,0.00
2023-05-20T03:54:42.163Z,0.00
2023-05-20T03:55:41.979Z,0.00
2023-05-20T03:56:41.969Z,0.00
2023-05-20T03:57:41.972Z,0.00
2023-05-20T03:58:41.984Z,0.00
2023-05-20T03:59:41.922Z,0.00
2023-05-20T04:00:41.931Z,0.00
2023-05-20T04:01:41.978Z,0.00
2023-05-20T04:02:42.000Z,0.00
2023-05-20T04:03:42.026Z,0.00
2023-05-20T04:04:41.885Z,0.00
2023-05-20T04:05:41.931Z,0.00
2023-05-20T04:06:41.853Z,0.00
2023-05-20T04:07:41.847Z,0.00
2023-05-20T04:08:41.833Z,0.00
2023-05-20T04:09:41.819Z,0.00
2023-05-20T04:10:41.843Z,0.00
2023-05-20T04:11:41.805Z,0.00
2023-05-20T04:12:41.810Z,0.00
2023-05-20T04:13:41.813Z,0.00
2023-05-20T04:14:41.834Z,0.00
2023-05-20T04:15:41.787Z,0.00
2023-05-20T04:16:46.625Z,0.00
2023-05-20T04:17:41.788Z,0.00
2023-05-20T04:18:41.754Z,0.00
2023-05-20T04:19:41.736Z,0.00
2023-05-20T04:20:41.701Z,0.00
2023-05-20T04:21:41.708Z,0.00
2023-05-20T04:22:41.710Z,0.00
2023-05-20T04:23:41.708Z,0.00
2023-05-20T04:24:41.686Z,0.00
2023-05-20T04:25:41.653Z,0.00
2023-05-20T04:26:41.684Z,0.00
2023-05-20T04:27:41.671Z,0.00
2023-05-20T04:28:41.625Z,0.00
2023-05-20T04:29:41.736Z,0.00
2023-05-20T04:30:41.590Z,0.00
2023-05-20T04:31:41.646Z,0.00
2023-05-20T04:32:42.107Z,0.00
2023-05-20T04:33:41.741Z,0.00
2023-05-20T04:34:41.597Z,0.00
2023-05-20T04:35:41.670Z,0.00
2023-05-20T04:36:41.576Z,0.00
2023-05-20T04:37:41.556Z,0.00
2023-05-20T04:38:41.599Z,0.00
2023-05-20T04:39:41.530Z,0.00
2023-05-20T04:40:41.536Z,0.00
2023-05-20T04:41:41.782Z,0.00
2023-05-20T04:42:41.484Z,0.00
2023-05-20T04:43:41.459Z,0.00
2023-05-20T04:44:42.433Z,0.00
2023-05-20T04:45:41.448Z,0.00
2023-05-20T04:46:41.455Z,0.00
2023-05-20T04:47:41.443Z,0.00
2023-05-20T04:48:41.411Z,0.00
2023-05-20T04:49:41.614Z,0.00
2023-05-20T04:50:41.418Z,0.00
2023-05-20T04:51:41.379Z,0.00
2023-05-20T04:52:41.361Z,0.00
2023-05-20T04:53:41.351Z,0.00
2023-05-20T04:54:41.356Z,0.00
2023-05-20T04:55:41.340Z,0.00
2023-05-20T04:56:41.318Z,0.00
2023-05-20T04:57:41.368Z,0.00
2023-05-20T04:58:42.136Z,0.00
2023-05-20T04:59:41.307Z,0.00
2023-05-20T05:00:41.312Z,0.00
2023-05-20T05:01:41.304Z,0.00
2023-05-20T05:02:41.276Z,0.00
2023-05-20T05:03:41.249Z,0.00
2023-05-20T05:04:41.394Z,0.00
2023-05-20T05:05:41.262Z,0.00
2023-05-20T05:06:41.220Z,0.00
2023-05-20T05:07:41.203Z,0.00
2023-05-20T05:08:41.205Z,0.00
2023-05-20T05:09:41.194Z,0.00
2023-05-20T05:10:41.177Z,0.00
2023-05-20T05:11:41.227Z,0.00
2023-05-20T05:12:41.159Z,0.00
2023-05-20T05:13:41.152Z,0.00
2023-05-20T05:14:41.199Z,0.00
2023-05-20T05:15:41.135Z,0.00
2023-05-20T05:16:41.136Z,0.00
2023-05-20T05:17:41.229Z,0.00
2023-05-20T05:18:41.130Z,0.00
2023-05-20T05:19:41.081Z,0.00
2023-05-20T05:20:41.067Z,0.00
2023-05-20T05:21:41.059Z,0.00
2023-05-20T05:22:41.089Z,0.00
2023-05-20T05:23:41.037Z,0.00
2023-05-20T05:24:41.036Z,0.00
2023-05-20T05:25:41.100Z,0.00
2023-05-20T05:26:41.042Z,0.00
2023-05-20T05:27:40.998Z,0.00
2023-05-20T05:28:41.009Z,0.00
2023-05-20T05:29:40.993Z,0.00
2023-05-20T05:30:40.993Z,0.00
2023-05-20T05:31:40.960Z,0.00
2023-05-20T05:32:40.998Z,0.00
2023-05-20T05:33:40.969Z,0.00
2023-05-20T05:34:41.028Z,0.00
2023-05-20T05:35:40.947Z,0.00
2023-05-20T05:36:40.903Z,0.00
2023-05-20T05:37:40.886Z,0.00
2023-05-20T05:38:40.929Z,0.00
2023-05-20T05:39:40.879Z,0.00
2023-05-20T05:40:40.873Z,0.00
2023-05-20T05:41:40.848Z,0.00
2023-05-20T05:42:40.926Z,0.00
2023-05-20T05:43:40.820Z,0.00
2023-05-20T05:44:40.831Z,0.00
2023-05-20T05:45:40.873Z,0.00
2023-05-20T05:46:40.858Z,0.00
2023-05-20T05:47:40.872Z,0.00
2023-05-20T05:48:40.784Z,0.00
2023-05-20T05:49:40.825Z,0.00
2023-05-20T05:50:40.753Z,0.00
2023-05-20T05:51:40.772Z,0.00
2023-05-20T05:52:40.733Z,0.00
2023-05-20T05:53:40.739Z,0.00
2023-05-20T05:54:40.698Z,0.00
2023-05-20T05:55:40.707Z,0.00
2023-05-20T05:56:41.630Z,0.00
2023-05-20T05:57:40.720Z,0.00
2023-05-20T05:58:40.692Z,0.00
2023-05-20T05:59:40.659Z,0.00
2023-05-20T06:00:40.676Z,0.00
2023-05-20T06:01:40.683Z,0.00
2023-05-20T06:02:40.698Z,0.00
2023-05-20T06:03:40.730Z,0.00
2023-05-20T06:04:40.627Z,0.00
2023-05-20T06:05:40.726Z,0.00
2023-05-20T06:06:40.581Z,0.00
2023-05-20T06:07:40.575Z,0.00
2023-05-20T06:08:40.586Z,0.00
2023-05-20T06:09:40.571Z,0.00
2023-05-20T06:10:40.612Z,0.00
2023-05-20T06:11:40.598Z,0.00
2023-05-20T06:12:40.525Z,0.00
2023-05-20T06:13:40.521Z,0.00
2023-05-20T06:14:40.537Z,0.00
2023-05-20T06:15:40.521Z,0.00
2023-05-20T06:16:40.522Z,0.00
2023-05-20T06:17:40.492Z,0.00
2023-05-20T06:18:40.502Z,0.00
2023-05-20T06:19:40.525Z,0.00
2023-05-20T06:20:40.672Z,0.00
2023-05-20T06:21:40.425Z,0.00
2023-05-20T06:22:40.428Z,0.00
2023-05-20T06:23:40.428Z,0.00
2023-05-20T06:24:40.446Z,0.00
2023-05-20T06:25:40.638Z,0.00
2023-05-20T06:26:40.393Z,0.00
2023-05-20T06:27:40.370Z,0.00
2023-05-20T06:28:40.375Z,0.00
2023-05-20T06:29:42.378Z,0.00
2023-05-20T06:30:40.507Z,0.00
2023-05-20T06:31:40.341Z,0.00
2023-05-20T06:32:40.352Z,0.00
2023-05-20T06:33:40.320Z,0.00
2023-05-20T06:34:40.294Z,0.00
2023-05-20T06:35:40.277Z,0.00
2023-05-20T06:36:40.254Z,0.00
2023-05-20T06:37:40.275Z,0.00
2023-05-20T06:38:40.647Z,0.00
2023-05-20T06:39:40.268Z,0.00
2023-05-20T06:40:40.225Z,0.00
2023-05-20T06:41:40.221Z,0.00
2023-05-20T06:42:40.194Z,0.00
2023-05-20T06:43:40.189Z,0.00
2023-05-20T06:44:40.233Z,0.00
2023-05-20T06:45:40.195Z,0.00
2023-05-20T06:46:45.300Z,0.00
2023-05-20T06:47:40.159Z,0.00
2023-05-20T06:48:40.151Z,0.00
2023-05-20T06:49:40.130Z,0.00
2023-05-20T06:50:40.172Z,0.00
2023-05-20T06:51:40.132Z,0.00
2023-05-20T06:52:40.138Z,0.00
2023-05-20T06:53:40.121Z,0.00
2023-05-20T06:54:40.091Z,0.00
2023-05-20T06:55:40.062Z,0.00
2023-05-20T06:56:40.060Z,0.00
2023-05-20T06:57:40.043Z,0.00
2023-05-20T06:58:40.126Z,0.00
2023-05-20T06:59:40.052Z,0.00
2023-05-20T07:00:39.996Z,0.00
2023-05-20T07:01:40.073Z,0.00
2023-05-20T07:02:40.074Z,0.00
2023-05-20T07:03:40.051Z,0.00
2023-05-20T07:04:40.044Z,0.00
2023-05-20T07:05:39.967Z,0.00
2023-05-20T07:06:40.078Z,0.00
2023-05-20T07:07:40.070Z,0.00
2023-05-20T07:08:39.937Z,0.00
2023-05-20T07:09:39.905Z,0.00
2023-05-20T07:10:39.904Z,0.00
2023-05-20T07:11:39.932Z,0.00
2023-05-20T07:12:39.867Z,0.00
2023-05-20T07:13:39.880Z,0.00
2023-05-20T07:14:39.859Z,0.00
2023-05-20T07:15:39.954Z,0.00
2023-05-20T07:16:54.641Z,0.00
2023-05-20T07:17:40.025Z,0.00
2023-05-20T07:18:39.864Z,0.00
2023-05-20T07:19:39.812Z,0.00
2023-05-20T07:20:39.790Z,0.00
2023-05-20T07:21:39.800Z,0.00
2023-05-20T07:22:40.170Z,0.00
2023-05-20T07:23:39.784Z,0.00
2023-05-20T07:24:39.747Z,0.00
2023-05-20T07:25:39.730Z,0.00
2023-05-20T07:26:39.790Z,0.00
2023-05-20T07:27:39.757Z,0.00
2023-05-20T07:28:39.727Z,0.00
2023-05-20T07:29:39.698Z,0.00
2023-05-20T07:30:39.714Z,0.00
2023-05-20T07:31:39.790Z,0.00
2023-05-20T07:32:39.783Z,0.00
2023-05-20T07:33:39.665Z,0.00
2023-05-20T07:34:39.646Z,0.00
2023-05-20T07:35:39.675Z,0.00
2023-05-20T07:36:39.626Z,0.00
2023-05-20T07:37:39.605Z,0.00
2023-05-20T07:38:41.184Z,0.00
2023-05-20T07:39:39.610Z,0.00
2023-05-20T07:40:39.584Z,0.00
2023-05-20T07:41:39.634Z,0.00
2023-05-20T07:42:39.552Z,0.00
2023-05-20T07:43:39.717Z,0.00
2023-05-20T07:44:39.608Z,0.00
2023-05-20T07:45:39.585Z,0.00
2023-05-20T07:46:39.773Z,0.00
2023-05-20T07:47:39.590Z,0.00
2023-05-20T07:48:39.493Z,0.00
2023-05-20T07:49:40.137Z,0.10
2023-05-20T07:50:39.506Z,0.10
2023-05-20T07:51:39.467Z,0.10
2023-05-20T07:53:39.493Z,0.10
2023-05-20T07:54:39.448Z,0.00
2023-05-20T07:55:39.438Z,0.10
2023-05-20T07:56:39.435Z,0.10
2023-05-20T07:57:39.434Z,0.20
2023-05-20T07:58:39.390Z,0.20
2023-05-20T07:59:39.385Z,0.20
2023-05-20T08:00:39.393Z,0.20
2023-05-20T08:01:39.392Z,0.20
2023-05-20T08:02:39.736Z,0.10
2023-05-20T08:03:39.406Z,0.10
2023-05-20T08:04:39.415Z,0.20
2023-05-20T08:05:39.324Z,0.20
2023-05-20T08:06:39.304Z,0.10
2023-05-20T08:07:39.320Z,0.10
2023-05-20T08:08:39.275Z,0.20
2023-05-20T08:09:39.273Z,0.10
2023-05-20T08:10:39.332Z,0.20
2023-05-20T08:11:39.248Z,0.20
2023-05-20T08:12:39.290Z,0.30
2023-05-20T08:13:39.272Z,0.30
2023-05-20T08:14:39.225Z,0.30
2023-05-20T08:15:39.208Z,0.30
2023-05-20T08:16:39.232Z,0.40
2023-05-20T08:17:39.311Z,0.30
2023-05-20T08:18:39.375Z,0.40
2023-05-20T08:19:39.176Z,0.30
2023-05-20T08:20:39.186Z,0.40
2023-05-20T08:21:39.153Z,0.30
2023-05-20T08:23:44.933Z,0.40
2023-05-20T08:23:45.401Z,0.40
2023-05-20T08:24:45.342Z,0.40
2023-05-20T08:25:45.362Z,0.40
2023-05-20T08:26:45.290Z,0.50
2023-05-20T08:27:45.276Z,0.70
2023-05-20T08:28:45.276Z,0.60
2023-05-20T08:29:45.254Z,0.80
2023-05-20T08:30:45.299Z,0.80
2023-05-20T08:31:45.288Z,0.90
2023-05-20T08:32:45.383Z,0.70
2023-05-20T08:33:45.266Z,0.60
2023-05-20T08:34:45.227Z,0.60
2023-05-20T08:35:45.238Z,0.50
2023-05-20T08:36:45.254Z,0.40
2023-05-20T08:37:45.459Z,0.40
2023-05-20T08:38:45.176Z,0.50
2023-05-20T08:39:45.177Z,0.60
2023-05-20T08:40:45.183Z,0.50
2023-05-20T08:41:45.152Z,0.40
2023-05-20T08:42:45.173Z,0.40
2023-05-20T08:43:45.123Z,0.40
2023-05-20T08:44:45.119Z,0.40
2023-05-20T08:45:45.109Z,0.20
2023-05-20T08:46:50.250Z,0.20
2023-05-20T08:47:45.611Z,0.20
2023-05-20T08:48:45.129Z,0.40
2023-05-20T08:49:45.070Z,0.40
2023-05-20T08:50:45.176Z,0.50
2023-05-20T08:51:45.053Z,0.60
2023-05-20T08:52:45.569Z,0.50
2023-05-20T08:53:45.042Z,0.50
2023-05-20T08:54:45.009Z,0.60
2023-05-20T08:55:45.003Z,0.50
2023-05-20T08:56:45.064Z,0.50
2023-05-20T08:57:45.002Z,0.30
2023-05-20T08:58:45.027Z,0.40
2023-05-20T08:59:44.951Z,0.40
2023-05-20T09:00:44.945Z,0.30
2023-05-20T09:01:44.973Z,0.30
2023-05-20T09:02:44.939Z,0.20
2023-05-20T09:03:44.910Z,0.20
2023-05-20T09:04:44.971Z,0.20
2023-05-20T09:05:45.017Z,0.20
2023-05-20T09:06:44.926Z,0.20
2023-05-20T09:07:44.898Z,0.20
2023-05-20T09:08:44.932Z,0.20
2023-05-20T09:09:45.560Z,0.10
2023-05-20T09:10:44.845Z,0.10
2023-05-20T09:11:44.911Z,0.20
2023-05-20T09:12:44.860Z,0.20
2023-05-20T09:13:44.845Z,0.20
2023-05-20T09:14:44.808Z,0.20
2023-05-20T09:15:44.817Z,0.20
2023-05-20T09:16:44.876Z,0.10
2023-05-20T09:17:44.803Z,0.20
2023-05-20T09:18:44.780Z,0.20
2023-05-20T09:19:44.746Z,0.20
2023-05-20T09:20:44.770Z,0.20
2023-05-20T09:21:44.745Z,0.30
2023-05-20T09:22:44.723Z,0.30
2023-05-20T09:23:44.727Z,0.30
2023-05-20T09:24:44.693Z,0.20
2023-05-20T09:25:44.682Z,0.20
2023-05-20T09:26:44.667Z,0.30
2023-05-20T09:27:44.707Z,0.30
2023-05-20T09:28:44.668Z,0.20
2023-05-20T09:29:44.663Z,0.20
2023-05-20T09:30:46.146Z,0.20
2023-05-20T09:31:44.699Z,0.20
2023-05-20T09:32:44.662Z,0.20
2023-05-20T09:33:44.635Z,0.20
2023-05-20T09:34:44.585Z,0.20
2023-05-20T09:35:44.572Z,0.30
2023-05-20T09:36:44.559Z,0.20
2023-05-20T09:37:44.583Z,0.20
2023-05-20T09:38:44.581Z,0.10
2023-05-20T09:39:44.663Z,0.20
2023-05-20T09:40:44.523Z,0.20
2023-05-20T09:41:44.604Z,0.20
2023-05-20T09:42:44.538Z,0.20
2023-05-20T09:43:44.545Z,0.20
2023-05-20T09:44:44.513Z,0.20
2023-05-20T09:45:44.557Z,0.20
2023-05-20T09:46:55.216Z,0.20
2023-05-20T09:47:44.577Z,0.20
2023-05-20T09:48:44.450Z,0.30
2023-05-20T09:49:44.458Z,0.30
2023-05-20T09:50:44.449Z,0.20
2023-05-20T09:51:44.415Z,0.20
2023-05-20T09:52:44.386Z,0.30
2023-05-20T09:53:44.378Z,0.20
2023-05-20T09:54:44.371Z,0.30
2023-05-20T09:55:44.429Z,0.30
2023-05-20T09:56:44.373Z,0.30
2023-05-20T09:57:44.340Z,0.30
2023-05-20T09:58:44.323Z,0.30
2023-05-20T09:59:44.331Z,0.40
2023-05-20T10:00:44.320Z,0.40
2023-05-20T10:01:44.381Z,0.30
2023-05-20T10:02:44.335Z,0.50
2023-05-20T10:03:44.596Z,0.50
2023-05-20T10:04:44.287Z,0.60
2023-05-20T10:05:44.270Z,0.50
2023-05-20T10:06:44.269Z,0.50
2023-05-20T10:07:44.258Z,0.80
2023-05-20T10:08:44.222Z,0.70
2023-05-20T10:09:44.221Z,0.60
2023-05-20T10:10:44.319Z,0.80
2023-05-20T10:11:44.637Z,0.60
2023-05-20T10:12:44.186Z,0.50
2023-05-20T10:13:44.186Z,0.50
2023-05-20T10:14:44.198Z,0.60
2023-05-20T10:15:44.250Z,0.50
2023-05-20T10:16:49.201Z,0.30
2023-05-20T10:17:44.243Z,0.20
2023-05-20T10:18:44.162Z,0.30
2023-05-20T10:19:44.142Z,0.30
2023-05-20T10:20:44.099Z,0.30
2023-05-20T10:21:44.099Z,0.30
2023-05-20T10:22:44.084Z,0.50
2023-05-20T10:23:44.114Z,0.70
2023-05-20T10:24:44.142Z,1.90
2023-05-20T10:25:44.091Z,0.80
2023-05-20T10:26:44.050Z,0.60
2023-05-20T10:27:44.095Z,0.40
2023-05-20T10:28:44.155Z,0.40
2023-05-20T10:29:44.105Z,0.40
2023-05-20T10:30:44.622Z,0.30
2023-05-20T10:31:44.031Z,0.30
2023-05-20T10:32:44.077Z,0.30
2023-05-20T10:33:44.104Z,0.30
2023-05-20T10:34:43.963Z,0.30
2023-05-20T10:35:44.038Z,0.20
2023-05-20T10:36:43.947Z,0.30
2023-05-20T10:37:43.943Z,0.30
2023-05-20T10:38:43.954Z,0.20
2023-05-20T10:39:43.981Z,0.20
2023-05-20T10:40:43.933Z,0.20
2023-05-20T10:41:43.931Z,0.20
2023-05-20T10:42:43.894Z,0.20
2023-05-20T10:43:43.879Z,0.20
2023-05-20T10:44:43.915Z,0.20
2023-05-20T10:45:43.864Z,0.20
2023-05-20T10:47:43.897Z,0.20
2023-05-20T10:48:43.951Z,0.20
2023-05-20T10:49:43.799Z,0.30
2023-05-20T10:50:43.804Z,0.30
2023-05-20T10:51:43.780Z,0.40
2023-05-20T10:52:43.789Z,0.30
2023-05-20T10:53:43.794Z,0.60
2023-05-20T10:54:43.767Z,0.60
2023-05-20T10:55:43.742Z,0.60
2023-05-20T10:56:43.730Z,0.90
2023-05-20T10:57:43.723Z,0.80
2023-05-20T10:58:44.784Z,0.60
2023-05-20T10:59:43.745Z,0.50
2023-05-20T11:00:43.738Z,0.80
2023-05-20T11:01:43.753Z,0.60
2023-05-20T11:02:43.721Z,1.10
2023-05-20T11:03:43.726Z,1.20
2023-05-20T11:04:43.660Z,1.50
2023-05-20T11:05:43.631Z,1.70
2023-05-20T11:06:43.669Z,1.80
2023-05-20T11:07:43.695Z,2.10
2023-05-20T11:08:43.613Z,2.40
2023-05-20T11:09:43.599Z,2.50
2023-05-20T11:10:43.600Z,2.00
2023-05-20T11:11:43.600Z,2.50
2023-05-20T11:12:43.671Z,2.80
2023-05-20T11:13:43.603Z,2.90
2023-05-20T11:14:43.598Z,3.20
2023-05-20T11:15:43.566Z,2.90
2023-05-20T11:16:43.700Z,2.30
2023-05-20T11:17:43.600Z,2.90
2023-05-20T11:18:43.536Z,2.70
2023-05-20T11:19:43.548Z,2.40
2023-05-20T11:20:43.520Z,2.40
2023-05-20T11:21:43.529Z,2.20
2023-05-20T11:22:43.503Z,1.90
2023-05-20T11:23:43.506Z,1.60
2023-05-20T11:24:43.497Z,1.30
2023-05-20T11:25:43.497Z,1.30
2023-05-20T11:26:43.484Z,1.10
2023-05-20T11:27:43.428Z,1.00
2023-05-20T11:28:43.531Z,1.00
2023-05-20T11:29:43.441Z,0.90
2023-05-20T11:30:43.404Z,0.80
2023-05-20T11:31:43.562Z,0.90
2023-05-20T11:32:43.445Z,0.80
2023-05-20T11:33:43.409Z,0.70
2023-05-20T11:34:43.346Z,0.90
2023-05-20T11:35:43.392Z,0.70
2023-05-20T11:36:43.407Z,0.70
2023-05-20T11:37:43.354Z,0.50
2023-05-20T11:38:43.309Z,0.50
2023-05-20T11:39:43.309Z,0.50
2023-05-20T11:40:50.617Z,0.50
2023-05-20T11:41:44.301Z,0.50
2023-05-20T11:42:43.301Z,0.50
2023-05-20T11:43:43.286Z,0.40
2023-05-20T11:44:43.238Z,0.40
2023-05-20T11:45:43.313Z,0.30
2023-05-20T11:46:43.323Z,0.30
2023-05-20T11:47:43.257Z,0.40
2023-05-20T11:48:43.263Z,0.30
2023-05-20T11:49:43.199Z,0.20
2023-05-20T11:50:43.185Z,0.30
2023-05-20T11:51:43.212Z,0.30
2023-05-20T11:52:43.189Z,0.30
2023-05-20T11:53:43.234Z,0.20
2023-05-20T11:54:43.137Z,0.20
2023-05-20T11:55:43.215Z,0.30
2023-05-20T11:56:43.153Z,0.20
2023-05-20T11:57:43.121Z,0.20
2023-05-20T11:58:43.112Z,0.20
2023-05-20T11:59:43.639Z,0.20
2023-05-20T12:00:51.712Z,0.20
2023-05-20T12:01:44.108Z,0.20
2023-05-20T12:02:43.077Z,0.20
2023-05-20T12:03:43.137Z,0.20
2023-05-20T12:04:43.083Z,0.40
2023-05-20T12:05:43.032Z,0.50
2023-05-20T12:06:43.011Z,0.40
2023-05-20T12:07:43.042Z,0.30
2023-05-20T12:08:43.026Z,0.30
2023-05-20T12:09:43.018Z,0.20
2023-05-20T12:10:42.991Z,0.20
2023-05-20T12:11:43.187Z,0.20
2023-05-20T12:12:42.991Z,0.30
2023-05-20T12:13:42.993Z,0.40
2023-05-20T12:14:42.937Z,0.50
2023-05-20T12:15:42.981Z,0.60
2023-05-20T12:16:47.734Z,0.60
2023-05-20T12:17:43.009Z,0.50
2023-05-20T12:18:42.937Z,0.60
2023-05-20T12:19:42.971Z,0.50
2023-05-20T12:20:42.908Z,0.60
2023-05-20T12:21:42.864Z,0.70
2023-05-20T12:22:42.853Z,1.00
2023-05-20T12:23:42.854Z,1.00
2023-05-20T12:24:42.866Z,1.30
2023-05-20T12:25:42.839Z,1.40
2023-05-20T12:26:42.835Z,1.20
2023-05-20T12:27:42.804Z,1.10
2023-05-20T12:28:42.801Z,1.10
2023-05-20T12:29:42.818Z,1.20
2023-05-20T12:30:42.776Z,1.30
2023-05-20T12:31:42.793Z,1.30
2023-05-20T12:32:42.829Z,1.20
2023-05-20T12:33:42.793Z,1.30
2023-05-20T12:34:42.779Z,1.30
2023-05-20T12:35:42.923Z,1.40
2023-05-20T12:36:42.706Z,1.20
2023-05-20T12:37:42.743Z,1.10
2023-05-20T12:38:42.696Z,1.50
2023-05-20T12:39:42.708Z,1.30
2023-05-20T12:40:42.810Z,1.20
2023-05-20T12:41:42.661Z,1.00
2023-05-20T12:42:42.718Z,1.20
2023-05-20T12:43:42.668Z,1.40
2023-05-20T12:44:42.637Z,1.40
2023-05-20T12:45:42.686Z,1.40
2023-05-20T12:46:47.349Z,1.50
2023-05-20T12:47:42.653Z,1.30
2023-05-20T12:48:42.824Z,1.40
2023-05-20T12:49:42.597Z,1.20
2023-05-20T12:50:42.578Z,1.20
2023-05-20T12:51:42.590Z,1.30
2023-05-20T12:52:42.568Z,1.40
2023-05-20T12:53:42.576Z,1.40
2023-05-20T12:54:42.535Z,1.20
2023-05-20T12:55:42.515Z,1.30
2023-05-20T12:56:42.526Z,1.30
2023-05-20T12:57:42.532Z,1.30
2023-05-20T12:58:42.510Z,1.60
2023-05-20T12:59:42.492Z,1.50
2023-05-20T13:00:42.500Z,1.40
2023-05-20T13:01:42.568Z,1.60
2023-05-20T13:02:42.762Z,1.50
2023-05-20T13:03:42.479Z,1.60
2023-05-20T13:04:42.462Z,1.50
2023-05-20T13:05:42.459Z,1.50
2023-05-20T13:06:42.464Z,1.50
2023-05-20T13:07:42.397Z,1.50
2023-05-20T13:08:42.436Z,1.80
2023-05-20T13:09:42.568Z,1.70
2023-05-20T13:10:42.403Z,1.70
2023-05-20T13:11:42.376Z,1.60
2023-05-20T13:12:42.371Z,1.50
2023-05-20T13:13:42.375Z,1.60
2023-05-20T13:14:42.328Z,1.90
2023-05-20T13:15:42.387Z,1.90
2023-05-20T13:16:53.362Z,1.90
2023-05-20T13:17:42.369Z,2.20
2023-05-20T13:18:42.326Z,2.30
2023-05-20T13:19:42.277Z,2.10
2023-05-20T13:20:42.275Z,2.00
2023-05-20T13:21:42.358Z,2.40